sensor_id;sensor_type;location;lat;lon;timestamp;temperature;humidity
13332;DHT22;6735;51.456;12.626;2023-02-15T00:01:51;0.00;86.10
13332;DHT22;6735;51.456;12.626;2023-02-15T00:04:19;0.00;86.20
13332;DHT22;6735;51.456;12.626;2023-02-15T00:06:46;0.00;86.20
13332;DHT22;6735;51.456;12.626;2023-02-15T00:09:12;0.00;86.30
13332;DHT22;6735;51.456;12.626;2023-02-15T00:11:38;0.00;86.50
13332;DHT22;6735;51.456;12.626;2023-02-15T00:14:11;0.00;86.50
13332;DHT22;6735;51.456;12.626;2023-02-15T00:16:38;0.00;86.50
13332;DHT22;6735;51.456;12.626;2023-02-15T00:19:04;0.10;86.50
13332;DHT22;6735;51.456;12.626;2023-02-15T00:21:31;0.00;86.50
13332;DHT22;6735;51.456;12.626;2023-02-15T00:23:58;0.10;86.40
13332;DHT22;6735;51.456;12.626;2023-02-15T00:26:24;0.00;86.40
13332;DHT22;6735;51.456;12.626;2023-02-15T00:28:49;0.00;86.40
13332;DHT22;6735;51.456;12.626;2023-02-15T00:31:15;0.00;86.40
13332;DHT22;6735;51.456;12.626;2023-02-15T00:33:40;0.00;86.40
13332;DHT22;6735;51.456;12.626;2023-02-15T00:36:07;0.00;86.40
13332;DHT22;6735;51.456;12.626;2023-02-15T00:38:34;0.00;86.40
13332;DHT22;6735;51.456;12.626;2023-02-15T00:41:01;0.00;86.40
13332;DHT22;6735;51.456;12.626;2023-02-15T00:43:27;0.00;86.20
13332;DHT22;6735;51.456;12.626;2023-02-15T00:45:53;-0.10;86.20
13332;DHT22;6735;51.456;12.626;2023-02-15T00:48:19;-0.10;86.30
13332;DHT22;6735;51.456;12.626;2023-02-15T00:50:46;-0.10;86.40
13332;DHT22;6735;51.456;12.626;2023-02-15T00:53:12;-0.10;86.50
13332;DHT22;6735;51.456;12.626;2023-02-15T00:55:37;-0.10;86.50
13332;DHT22;6735;51.456;12.626;2023-02-15T00:58:05;-0.10;86.60
13332;DHT22;6735;51.456;12.626;2023-02-15T01:00:30;0.00;86.80
13332;DHT22;6735;51.456;12.626;2023-02-15T01:02:56;0.00;86.90
13332;DHT22;6735;51.456;12.626;2023-02-15T01:05:21;0.00;86.90
13332;DHT22;6735;51.456;12.626;2023-02-15T01:07:47;0.00;86.80
13332;DHT22;6735;51.456;12.626;2023-02-15T01:10:12;-0.10;86.70
13332;DHT22;6735;51.456;12.626;2023-02-15T01:12:37;0.00;86.90
13332;DHT22;6735;51.456;12.626;2023-02-15T01:15:03;-0.10;86.90
13332;DHT22;6735;51.456;12.626;2023-02-15T01:17:29;-0.10;86.80
13332;DHT22;6735;51.456;12.626;2023-02-15T01:19:54;-0.10;86.90
13332;DHT22;6735;51.456;12.626;2023-02-15T01:22:19;-0.10;86.90
13332;DHT22;6735;51.456;12.626;2023-02-15T01:24:45;-0.10;86.80
13332;DHT22;6735;51.456;12.626;2023-02-15T01:27:10;-0.10;86.80
13332;DHT22;6735;51.456;12.626;2023-02-15T01:29:36;-0.10;86.90
13332;DHT22;6735;51.456;12.626;2023-02-15T01:32:02;-0.10;87.00
13332;DHT22;6735;51.456;12.626;2023-02-15T01:34:29;-0.20;87.00
13332;DHT22;6735;51.456;12.626;2023-02-15T01:36:55;-0.20;87.10
13332;DHT22;6735;51.456;12.626;2023-02-15T01:39:20;-0.20;87.00
13332;DHT22;6735;51.456;12.626;2023-02-15T01:41:45;-0.20;87.00
13332;DHT22;6735;51.456;12.626;2023-02-15T01:50:10;-0.30;87.00
13332;DHT22;6735;51.456;12.626;2023-02-15T01:52:41;-0.20;87.00
13332;DHT22;6735;51.456;12.626;2023-02-15T01:55:08;-0.20;87.10
13332;DHT22;6735;51.456;12.626;2023-02-15T01:57:34;-0.30;87.20
13332;DHT22;6735;51.456;12.626;2023-02-15T02:00:02;-0.20;87.20
13332;DHT22;6735;51.456;12.626;2023-02-15T02:02:28;-0.20;87.10
13332;DHT22;6735;51.456;12.626;2023-02-15T02:04:58;-0.30;87.00
13332;DHT22;6735;51.456;12.626;2023-02-15T02:07:27;-0.30;86.90
13332;DHT22;6735;51.456;12.626;2023-02-15T02:09:54;-0.30;87.00
13332;DHT22;6735;51.456;12.626;2023-02-15T02:12:21;-0.40;86.90
13332;DHT22;6735;51.456;12.626;2023-02-15T02:14:48;-0.40;87.10
13332;DHT22;6735;51.456;12.626;2023-02-15T02:17:37;-0.30;87.20
13332;DHT22;6735;51.456;12.626;2023-02-15T02:23:13;-0.40;87.00
13332;DHT22;6735;51.456;12.626;2023-02-15T02:26:17;-0.40;86.90
13332;DHT22;6735;51.456;12.626;2023-02-15T02:31:44;-0.50;86.80
13332;DHT22;6735;51.456;12.626;2023-02-15T02:34:29;-0.50;86.80
13332;DHT22;6735;51.456;12.626;2023-02-15T02:37:08;-0.60;86.90
13332;DHT22;6735;51.456;12.626;2023-02-15T02:39:57;-0.50;87.00
13332;DHT22;6735;51.456;12.626;2023-02-15T02:42:38;-0.60;87.00
13332;DHT22;6735;51.456;12.626;2023-02-15T02:45:17;-0.60;87.00
13332;DHT22;6735;51.456;12.626;2023-02-15T02:48:06;-0.60;86.90
13332;DHT22;6735;51.456;12.626;2023-02-15T02:50:33;-0.60;86.90
13332;DHT22;6735;51.456;12.626;2023-02-15T02:52:59;-0.60;87.00
13332;DHT22;6735;51.456;12.626;2023-02-15T02:55:29;-0.60;87.00
13332;DHT22;6735;51.456;12.626;2023-02-15T03:00:25;-0.60;86.90
13332;DHT22;6735;51.456;12.626;2023-02-15T03:02:59;-0.60;86.90
13332;DHT22;6735;51.456;12.626;2023-02-15T03:05:30;-0.60;86.80
13332;DHT22;6735;51.456;12.626;2023-02-15T03:07:57;-0.70;86.80
13332;DHT22;6735;51.456;12.626;2023-02-15T03:10:27;-0.70;86.80
13332;DHT22;6735;51.456;12.626;2023-02-15T03:12:53;-0.70;86.60
13332;DHT22;6735;51.456;12.626;2023-02-15T03:15:29;-0.80;86.60
13332;DHT22;6735;51.456;12.626;2023-02-15T03:18:17;-0.80;86.60
13332;DHT22;6735;51.456;12.626;2023-02-15T03:20:44;-0.80;86.70
13332;DHT22;6735;51.456;12.626;2023-02-15T03:23:13;-0.80;86.60
13332;DHT22;6735;51.456;12.626;2023-02-15T03:25:44;-0.80;86.70
13332;DHT22;6735;51.456;12.626;2023-02-15T03:28:15;-0.80;86.70
13332;DHT22;6735;51.456;12.626;2023-02-15T03:30:45;-0.90;86.70
13332;DHT22;6735;51.456;12.626;2023-02-15T03:33:13;-0.90;86.70
13332;DHT22;6735;51.456;12.626;2023-02-15T03:38:36;-0.90;86.90
13332;DHT22;6735;51.456;12.626;2023-02-15T03:41:06;-0.90;86.90
13332;DHT22;6735;51.456;12.626;2023-02-15T03:43:52;-0.90;87.00
13332;DHT22;6735;51.456;12.626;2023-02-15T03:48:57;-0.90;87.10
13332;DHT22;6735;51.456;12.626;2023-02-15T03:51:29;-0.80;87.20
13332;DHT22;6735;51.456;12.626;2023-02-15T03:54:08;-0.80;87.10
13332;DHT22;6735;51.456;12.626;2023-02-15T03:56:37;-0.80;87.20
13332;DHT22;6735;51.456;12.626;2023-02-15T03:59:04;-0.80;87.30
13332;DHT22;6735;51.456;12.626;2023-02-15T04:02:04;-0.80;87.20
13332;DHT22;6735;51.456;12.626;2023-02-15T04:04:40;-0.90;87.10
13332;DHT22;6735;51.456;12.626;2023-02-15T04:07:08;-0.90;87.00
13332;DHT22;6735;51.456;12.626;2023-02-15T04:09:34;-0.90;87.00
13332;DHT22;6735;51.456;12.626;2023-02-15T04:12:18;-0.90;87.10
13332;DHT22;6735;51.456;12.626;2023-02-15T04:14:44;-0.90;87.10
13332;DHT22;6735;51.456;12.626;2023-02-15T04:17:28;-0.90;87.20
13332;DHT22;6735;51.456;12.626;2023-02-15T04:19:54;-0.90;87.10
13332;DHT22;6735;51.456;12.626;2023-02-15T04:22:38;-0.90;87.20
13332;DHT22;6735;51.456;12.626;2023-02-15T04:25:22;-0.90;87.20
13332;DHT22;6735;51.456;12.626;2023-02-15T04:27:50;-0.90;87.40
13332;DHT22;6735;51.456;12.626;2023-02-15T04:30:17;-0.90;87.30
13332;DHT22;6735;51.456;12.626;2023-02-15T04:32:44;-0.90;87.40
13332;DHT22;6735;51.456;12.626;2023-02-15T04:35:09;-0.90;87.70
13332;DHT22;6735;51.456;12.626;2023-02-15T04:37:35;-0.90;87.50
13332;DHT22;6735;51.456;12.626;2023-02-15T04:40:01;-0.90;87.40
13332;DHT22;6735;51.456;12.626;2023-02-15T04:42:27;-0.90;87.20
13332;DHT22;6735;51.456;12.626;2023-02-15T04:44:53;-0.90;87.30
13332;DHT22;6735;51.456;12.626;2023-02-15T04:47:19;-0.90;87.20
13332;DHT22;6735;51.456;12.626;2023-02-15T04:49:44;-0.90;87.30
13332;DHT22;6735;51.456;12.626;2023-02-15T04:52:10;-1.00;87.30
13332;DHT22;6735;51.456;12.626;2023-02-15T04:54:35;-1.00;87.10
13332;DHT22;6735;51.456;12.626;2023-02-15T04:57:01;-1.00;87.10
13332;DHT22;6735;51.456;12.626;2023-02-15T04:59:27;-1.00;87.10
13332;DHT22;6735;51.456;12.626;2023-02-15T05:01:52;-1.00;87.10
13332;DHT22;6735;51.456;12.626;2023-02-15T05:04:18;-1.00;87.20
13332;DHT22;6735;51.456;12.626;2023-02-15T05:06:43;-1.00;87.10
13332;DHT22;6735;51.456;12.626;2023-02-15T05:09:11;-1.00;87.10
13332;DHT22;6735;51.456;12.626;2023-02-15T05:11:36;-1.00;87.00
13332;DHT22;6735;51.456;12.626;2023-02-15T05:14:02;-1.00;87.10
13332;DHT22;6735;51.456;12.626;2023-02-15T05:16:27;-1.10;87.00
13332;DHT22;6735;51.456;12.626;2023-02-15T05:18:53;-1.10;87.00
13332;DHT22;6735;51.456;12.626;2023-02-15T05:21:18;-1.10;86.90
13332;DHT22;6735;51.456;12.626;2023-02-15T05:23:44;-1.10;87.00
13332;DHT22;6735;51.456;12.626;2023-02-15T05:26:19;-1.10;87.10
13332;DHT22;6735;51.456;12.626;2023-02-15T05:29:03;-1.10;87.10
13332;DHT22;6735;51.456;12.626;2023-02-15T05:31:30;-1.10;87.00
13332;DHT22;6735;51.456;12.626;2023-02-15T05:33:56;-1.10;87.00
13332;DHT22;6735;51.456;12.626;2023-02-15T05:36:21;-1.20;87.00
13332;DHT22;6735;51.456;12.626;2023-02-15T05:38:47;-1.10;87.10
13332;DHT22;6735;51.456;12.626;2023-02-15T05:41:12;-1.20;87.00
13332;DHT22;6735;51.456;12.626;2023-02-15T05:43:38;-1.20;86.90
13332;DHT22;6735;51.456;12.626;2023-02-15T05:46:04;-1.20;86.90
13332;DHT22;6735;51.456;12.626;2023-02-15T05:48:30;-1.20;86.80
13332;DHT22;6735;51.456;12.626;2023-02-15T05:51:00;-1.20;87.00
13332;DHT22;6735;51.456;12.626;2023-02-15T05:53:27;-1.20;87.00
13332;DHT22;6735;51.456;12.626;2023-02-15T05:55:53;-1.20;86.90
13332;DHT22;6735;51.456;12.626;2023-02-15T05:58:19;-1.20;86.80
13332;DHT22;6735;51.456;12.626;2023-02-15T06:00:45;-1.20;87.10
13332;DHT22;6735;51.456;12.626;2023-02-15T06:03:10;-1.20;86.90
13332;DHT22;6735;51.456;12.626;2023-02-15T06:05:36;-1.20;86.90
13332;DHT22;6735;51.456;12.626;2023-02-15T06:08:01;-1.30;87.00
13332;DHT22;6735;51.456;12.626;2023-02-15T06:10:27;-1.20;87.00
13332;DHT22;6735;51.456;12.626;2023-02-15T06:12:52;-1.20;87.10
13332;DHT22;6735;51.456;12.626;2023-02-15T06:15:18;-1.20;87.10
13332;DHT22;6735;51.456;12.626;2023-02-15T06:17:43;-1.20;87.10
13332;DHT22;6735;51.456;12.626;2023-02-15T06:20:09;-1.20;87.20
13332;DHT22;6735;51.456;12.626;2023-02-15T06:22:35;-1.20;87.20
13332;DHT22;6735;51.456;12.626;2023-02-15T06:25:01;-1.20;87.10
13332;DHT22;6735;51.456;12.626;2023-02-15T06:27:26;-1.20;87.10
13332;DHT22;6735;51.456;12.626;2023-02-15T06:29:51;-1.20;87.20
13332;DHT22;6735;51.456;12.626;2023-02-15T06:32:17;-1.20;87.20
13332;DHT22;6735;51.456;12.626;2023-02-15T06:34:42;-1.20;87.40
13332;DHT22;6735;51.456;12.626;2023-02-15T06:37:08;-1.20;87.30
13332;DHT22;6735;51.456;12.626;2023-02-15T06:39:34;-1.10;87.30
13332;DHT22;6735;51.456;12.626;2023-02-15T06:41:59;-1.10;87.40
13332;DHT22;6735;51.456;12.626;2023-02-15T06:44:25;-1.00;87.40
13332;DHT22;6735;51.456;12.626;2023-02-15T06:46:50;-1.10;87.40
13332;DHT22;6735;51.456;12.626;2023-02-15T06:49:16;-1.10;87.30
13332;DHT22;6735;51.456;12.626;2023-02-15T06:51:41;-1.00;87.30
13332;DHT22;6735;51.456;12.626;2023-02-15T06:54:07;-1.00;87.40
13332;DHT22;6735;51.456;12.626;2023-02-15T06:56:32;-1.00;87.40
13332;DHT22;6735;51.456;12.626;2023-02-15T06:58:58;-0.90;87.40
13332;DHT22;6735;51.456;12.626;2023-02-15T07:01:24;-0.90;87.40
13332;DHT22;6735;51.456;12.626;2023-02-15T07:03:49;-0.90;87.40
13332;DHT22;6735;51.456;12.626;2023-02-15T07:06:15;-0.90;87.50
13332;DHT22;6735;51.456;12.626;2023-02-15T07:08:40;-0.80;87.70
13332;DHT22;6735;51.456;12.626;2023-02-15T07:11:06;-0.80;87.80
13332;DHT22;6735;51.456;12.626;2023-02-15T07:13:51;-0.70;87.80
13332;DHT22;6735;51.456;12.626;2023-02-15T07:16:18;-0.60;87.80
13332;DHT22;6735;51.456;12.626;2023-02-15T07:18:43;-0.60;88.00
13332;DHT22;6735;51.456;12.626;2023-02-15T07:21:09;-0.50;88.40
13332;DHT22;6735;51.456;12.626;2023-02-15T07:23:35;-0.40;88.50
13332;DHT22;6735;51.456;12.626;2023-02-15T07:26:01;-0.30;88.60
13332;DHT22;6735;51.456;12.626;2023-02-15T07:28:28;-0.30;88.70
13332;DHT22;6735;51.456;12.626;2023-02-15T07:30:53;-0.10;88.80
13332;DHT22;6735;51.456;12.626;2023-02-15T07:33:19;-0.10;88.70
13332;DHT22;6735;51.456;12.626;2023-02-15T07:36:01;0.00;88.70
13332;DHT22;6735;51.456;12.626;2023-02-15T07:38:30;0.00;88.90
13332;DHT22;6735;51.456;12.626;2023-02-15T07:41:01;0.10;89.20
13332;DHT22;6735;51.456;12.626;2023-02-15T07:43:28;0.20;89.30
13332;DHT22;6735;51.456;12.626;2023-02-15T07:45:54;0.30;89.50
13332;DHT22;6735;51.456;12.626;2023-02-15T07:48:20;0.40;89.60
13332;DHT22;6735;51.456;12.626;2023-02-15T07:50:45;0.60;89.80
13332;DHT22;6735;51.456;12.626;2023-02-15T07:53:11;0.90;90.10
13332;DHT22;6735;51.456;12.626;2023-02-15T07:55:36;1.40;91.20
13332;DHT22;6735;51.456;12.626;2023-02-15T07:58:02;1.60;90.50
13332;DHT22;6735;51.456;12.626;2023-02-15T08:00:28;1.90;90.10
13332;DHT22;6735;51.456;12.626;2023-02-15T08:02:55;2.30;89.60
13332;DHT22;6735;51.456;12.626;2023-02-15T08:05:41;2.70;88.20
13332;DHT22;6735;51.456;12.626;2023-02-15T08:08:08;3.20;87.20
13332;DHT22;6735;51.456;12.626;2023-02-15T08:10:35;3.70;85.90
13332;DHT22;6735;51.456;12.626;2023-02-15T08:13:19;4.10;85.10
13332;DHT22;6735;51.456;12.626;2023-02-15T08:15:49;4.60;84.10
13332;DHT22;6735;51.456;12.626;2023-02-15T08:18:14;4.90;82.30
13332;DHT22;6735;51.456;12.626;2023-02-15T08:20:40;5.30;81.80
13332;DHT22;6735;51.456;12.626;2023-02-15T08:23:05;5.60;80.20
13332;DHT22;6735;51.456;12.626;2023-02-15T08:25:31;5.70;79.00
13332;DHT22;6735;51.456;12.626;2023-02-15T08:27:56;5.90;79.00
13332;DHT22;6735;51.456;12.626;2023-02-15T08:30:22;5.90;78.00
13332;DHT22;6735;51.456;12.626;2023-02-15T08:32:47;6.10;77.80
13332;DHT22;6735;51.456;12.626;2023-02-15T08:35:13;6.00;77.70
13332;DHT22;6735;51.456;12.626;2023-02-15T08:37:38;5.70;77.50
13332;DHT22;6735;51.456;12.626;2023-02-15T08:40:04;5.50;77.90
13332;DHT22;6735;51.456;12.626;2023-02-15T08:42:32;5.40;78.90
13332;DHT22;6735;51.456;12.626;2023-02-15T08:44:58;5.40;79.30
13332;DHT22;6735;51.456;12.626;2023-02-15T08:47:23;5.40;79.20
13332;DHT22;6735;51.456;12.626;2023-02-15T08:49:49;5.40;79.40
13332;DHT22;6735;51.456;12.626;2023-02-15T08:52:16;5.30;78.90
13332;DHT22;6735;51.456;12.626;2023-02-15T08:54:41;5.30;78.90
13332;DHT22;6735;51.456;12.626;2023-02-15T08:57:07;5.10;78.60
13332;DHT22;6735;51.456;12.626;2023-02-15T08:59:33;5.00;79.20
13332;DHT22;6735;51.456;12.626;2023-02-15T09:01:59;4.90;79.40
13332;DHT22;6735;51.456;12.626;2023-02-15T09:04:25;4.90;79.60
13332;DHT22;6735;51.456;12.626;2023-02-15T09:06:52;4.90;79.60
13332;DHT22;6735;51.456;12.626;2023-02-15T09:09:19;4.80;79.00
13332;DHT22;6735;51.456;12.626;2023-02-15T09:11:46;4.80;79.00
13332;DHT22;6735;51.456;12.626;2023-02-15T09:14:18;5.00;78.80
13332;DHT22;6735;51.456;12.626;2023-02-15T09:16:45;5.10;78.20
13332;DHT22;6735;51.456;12.626;2023-02-15T09:19:14;5.30;77.80
13332;DHT22;6735;51.456;12.626;2023-02-15T09:21:39;5.60;77.20
13332;DHT22;6735;51.456;12.626;2023-02-15T09:24:10;5.70;76.90
13332;DHT22;6735;51.456;12.626;2023-02-15T09:26:38;5.80;76.60
13332;DHT22;6735;51.456;12.626;2023-02-15T09:29:06;6.10;76.40
13332;DHT22;6735;51.456;12.626;2023-02-15T09:31:41;6.20;75.70
13332;DHT22;6735;51.456;12.626;2023-02-15T09:34:09;6.50;76.30
13332;DHT22;6735;51.456;12.626;2023-02-15T09:36:37;6.60;75.10
13332;DHT22;6735;51.456;12.626;2023-02-15T09:39:15;6.70;74.20
13332;DHT22;6735;51.456;12.626;2023-02-15T09:45:04;7.40;74.90
13332;DHT22;6735;51.456;12.626;2023-02-15T09:48:03;7.30;73.70
13332;DHT22;6735;51.456;12.626;2023-02-15T09:53:36;7.20;73.30
13332;DHT22;6735;51.456;12.626;2023-02-15T09:59:15;6.90;73.90
13332;DHT22;6735;51.456;12.626;2023-02-15T10:10:54;6.90;74.60
13332;DHT22;6735;51.456;12.626;2023-02-15T10:13:44;6.80;74.20
13332;DHT22;6735;51.456;12.626;2023-02-15T10:16:26;6.80;74.50
13332;DHT22;6735;51.456;12.626;2023-02-15T10:19:04;6.70;74.80
13332;DHT22;6735;51.456;12.626;2023-02-15T10:27:23;6.80;75.00
13332;DHT22;6735;51.456;12.626;2023-02-15T10:30:08;6.90;75.60
13332;DHT22;6735;51.456;12.626;2023-02-15T10:32:47;6.90;75.20
13332;DHT22;6735;51.456;12.626;2023-02-15T10:35:24;7.00;75.20
13332;DHT22;6735;51.456;12.626;2023-02-15T10:38:24;7.00;75.10
13332;DHT22;6735;51.456;12.626;2023-02-15T10:41:14;7.10;75.00
13332;DHT22;6735;51.456;12.626;2023-02-15T10:44:08;7.10;74.60
13332;DHT22;6735;51.456;12.626;2023-02-15T10:46:57;7.10;74.50
13332;DHT22;6735;51.456;12.626;2023-02-15T10:49:38;7.20;74.80
13332;DHT22;6735;51.456;12.626;2023-02-15T10:52:35;7.20;74.50
13332;DHT22;6735;51.456;12.626;2023-02-15T10:55:27;7.10;74.40
13332;DHT22;6735;51.456;12.626;2023-02-15T11:00:45;7.20;74.90
13332;DHT22;6735;51.456;12.626;2023-02-15T11:03:23;7.20;74.70
13332;DHT22;6735;51.456;12.626;2023-02-15T11:06:08;7.20;74.60
13332;DHT22;6735;51.456;12.626;2023-02-15T11:08:45;7.30;74.80
13332;DHT22;6735;51.456;12.626;2023-02-15T11:11:15;7.30;74.70
13332;DHT22;6735;51.456;12.626;2023-02-15T11:13:48;7.30;74.60
13332;DHT22;6735;51.456;12.626;2023-02-15T11:16:25;7.40;74.70
13332;DHT22;6735;51.456;12.626;2023-02-15T11:18:55;7.40;74.60
13332;DHT22;6735;51.456;12.626;2023-02-15T11:21:27;7.40;74.70
13332;DHT22;6735;51.456;12.626;2023-02-15T11:23:55;7.50;74.40
13332;DHT22;6735;51.456;12.626;2023-02-15T11:26:32;7.50;74.00
13332;DHT22;6735;51.456;12.626;2023-02-15T11:29:01;7.60;74.30
13332;DHT22;6735;51.456;12.626;2023-02-15T11:31:42;7.60;74.30
13332;DHT22;6735;51.456;12.626;2023-02-15T11:34:20;7.60;74.00
13332;DHT22;6735;51.456;12.626;2023-02-15T11:36:47;7.70;74.00
13332;DHT22;6735;51.456;12.626;2023-02-15T11:39:17;7.70;73.90
13332;DHT22;6735;51.456;12.626;2023-02-15T11:41:55;7.80;73.90
13332;DHT22;6735;51.456;12.626;2023-02-15T11:44:30;7.80;73.80
13332;DHT22;6735;51.456;12.626;2023-02-15T11:46:58;7.90;73.50
13332;DHT22;6735;51.456;12.626;2023-02-15T11:49:31;7.90;73.40
13332;DHT22;6735;51.456;12.626;2023-02-15T11:51:57;7.90;74.00
13332;DHT22;6735;51.456;12.626;2023-02-15T11:54:31;7.90;73.90
13332;DHT22;6735;51.456;12.626;2023-02-15T11:57:04;8.10;73.60
13332;DHT22;6735;51.456;12.626;2023-02-15T11:59:34;8.10;73.50
13332;DHT22;6735;51.456;12.626;2023-02-15T12:02:07;8.20;73.10
13332;DHT22;6735;51.456;12.626;2023-02-15T12:04:43;8.30;72.60
13332;DHT22;6735;51.456;12.626;2023-02-15T12:07:25;8.40;72.10
13332;DHT22;6735;51.456;12.626;2023-02-15T12:10:28;8.40;72.20
13332;DHT22;6735;51.456;12.626;2023-02-15T12:13:16;8.50;71.80
13332;DHT22;6735;51.456;12.626;2023-02-15T12:15:53;8.50;71.40
13332;DHT22;6735;51.456;12.626;2023-02-15T12:18:40;8.60;71.30
13332;DHT22;6735;51.456;12.626;2023-02-15T12:21:12;8.60;71.30
13332;DHT22;6735;51.456;12.626;2023-02-15T12:23:48;8.80;71.10
13332;DHT22;6735;51.456;12.626;2023-02-15T12:26:23;8.80;70.60
13332;DHT22;6735;51.456;12.626;2023-02-15T12:28:49;8.90;71.00
13332;DHT22;6735;51.456;12.626;2023-02-15T12:31:36;9.00;69.90
13332;DHT22;6735;51.456;12.626;2023-02-15T12:34:13;9.00;70.30
13332;DHT22;6735;51.456;12.626;2023-02-15T12:36:47;9.00;69.60
13332;DHT22;6735;51.456;12.626;2023-02-15T12:39:22;9.00;70.10
13332;DHT22;6735;51.456;12.626;2023-02-15T12:44:22;9.10;69.40
13332;DHT22;6735;51.456;12.626;2023-02-15T12:47:33;9.20;69.20
13332;DHT22;6735;51.456;12.626;2023-02-15T12:50:06;9.20;69.40
13332;DHT22;6735;51.456;12.626;2023-02-15T12:52:32;9.30;68.90
13332;DHT22;6735;51.456;12.626;2023-02-15T12:55:19;9.50;68.00
13332;DHT22;6735;51.456;12.626;2023-02-15T12:57:44;9.60;68.50
13332;DHT22;6735;51.456;12.626;2023-02-15T13:02:47;9.70;68.20
13332;DHT22;6735;51.456;12.626;2023-02-15T13:05:31;9.80;67.00
13332;DHT22;6735;51.456;12.626;2023-02-15T13:08:00;9.80;67.50
13332;DHT22;6735;51.456;12.626;2023-02-15T13:10:29;9.90;67.60
13332;DHT22;6735;51.456;12.626;2023-02-15T13:12:55;9.90;67.30
13332;DHT22;6735;51.456;12.626;2023-02-15T13:15:41;9.90;65.20
13332;DHT22;6735;51.456;12.626;2023-02-15T13:18:15;10.00;64.50
13332;DHT22;6735;51.456;12.626;2023-02-15T13:20:42;10.10;65.50
13332;DHT22;6735;51.456;12.626;2023-02-15T13:23:28;10.10;64.30
13332;DHT22;6735;51.456;12.626;2023-02-15T13:25:59;10.10;65.50
13332;DHT22;6735;51.456;12.626;2023-02-15T13:28:44;10.10;63.90
13332;DHT22;6735;51.456;12.626;2023-02-15T13:31:17;10.10;64.70
13332;DHT22;6735;51.456;12.626;2023-02-15T13:33:53;10.10;64.00
13332;DHT22;6735;51.456;12.626;2023-02-15T13:36:40;10.10;63.70
13332;DHT22;6735;51.456;12.626;2023-02-15T13:39:25;10.10;63.30
13332;DHT22;6735;51.456;12.626;2023-02-15T13:41:59;10.10;63.90
13332;DHT22;6735;51.456;12.626;2023-02-15T13:44:49;10.00;64.30
13332;DHT22;6735;51.456;12.626;2023-02-15T13:47:31;10.00;63.30
13332;DHT22;6735;51.456;12.626;2023-02-15T13:55:51;10.00;62.60
13332;DHT22;6735;51.456;12.626;2023-02-15T14:04:34;10.00;63.30
13332;DHT22;6735;51.456;12.626;2023-02-15T14:10:18;9.90;63.30
13332;DHT22;6735;51.456;12.626;2023-02-15T14:15:20;9.90;62.60
13332;DHT22;6735;51.456;12.626;2023-02-15T14:20:36;9.80;64.40
13332;DHT22;6735;51.456;12.626;2023-02-15T14:23:20;9.80;63.40
13332;DHT22;6735;51.456;12.626;2023-02-15T14:25:57;9.80;63.20
13332;DHT22;6735;51.456;12.626;2023-02-15T14:28:34;9.80;63.40
13332;DHT22;6735;51.456;12.626;2023-02-15T14:31:03;9.70;63.40
13332;DHT22;6735;51.456;12.626;2023-02-15T14:33:38;9.70;63.20
13332;DHT22;6735;51.456;12.626;2023-02-15T14:36:07;9.60;63.60
13332;DHT22;6735;51.456;12.626;2023-02-15T14:41:14;9.50;63.80
13332;DHT22;6735;51.456;12.626;2023-02-15T14:43:47;9.50;63.60
13332;DHT22;6735;51.456;12.626;2023-02-15T14:49:23;9.50;64.30
13332;DHT22;6735;51.456;12.626;2023-02-15T14:59:42;9.30;64.20
13332;DHT22;6735;51.456;12.626;2023-02-15T15:04:37;9.20;64.50
13332;DHT22;6735;51.456;12.626;2023-02-15T15:07:14;9.10;64.90
13332;DHT22;6735;51.456;12.626;2023-02-15T15:09:43;9.10;65.10
13332;DHT22;6735;51.456;12.626;2023-02-15T15:14:48;9.00;65.30
13332;DHT22;6735;51.456;12.626;2023-02-15T15:20:13;8.90;65.50
13332;DHT22;6735;51.456;12.626;2023-02-15T15:22:41;8.80;66.00
13332;DHT22;6735;51.456;12.626;2023-02-15T15:27:59;8.70;66.50
13332;DHT22;6735;51.456;12.626;2023-02-15T15:38:36;8.40;67.40
13332;DHT22;6735;51.456;12.626;2023-02-15T15:49:38;8.00;68.40
13332;DHT22;6735;51.456;12.626;2023-02-15T15:52:18;7.90;69.20
13332;DHT22;6735;51.456;12.626;2023-02-15T15:54:47;7.90;69.40
13332;DHT22;6735;51.456;12.626;2023-02-15T15:57:29;7.90;69.60
13332;DHT22;6735;51.456;12.626;2023-02-15T15:59:56;7.80;69.50
13332;DHT22;6735;51.456;12.626;2023-02-15T16:02:24;7.70;69.70
13332;DHT22;6735;51.456;12.626;2023-02-15T16:04:50;7.70;69.70
13332;DHT22;6735;51.456;12.626;2023-02-15T16:09:41;7.60;70.30
13332;DHT22;6735;51.456;12.626;2023-02-15T16:12:15;7.50;70.30
13332;DHT22;6735;51.456;12.626;2023-02-15T16:14:42;7.50;70.50
13332;DHT22;6735;51.456;12.626;2023-02-15T16:17:24;7.40;70.90
13332;DHT22;6735;51.456;12.626;2023-02-15T16:19:50;7.40;70.90
13332;DHT22;6735;51.456;12.626;2023-02-15T16:22:22;7.20;71.00
13332;DHT22;6735;51.456;12.626;2023-02-15T16:27:48;7.10;71.50
13332;DHT22;6735;51.456;12.626;2023-02-15T16:30:29;7.10;71.80
13332;DHT22;6735;51.456;12.626;2023-02-15T16:33:12;7.10;71.80
13332;DHT22;6735;51.456;12.626;2023-02-15T16:35:41;7.00;71.70
13332;DHT22;6735;51.456;12.626;2023-02-15T16:38:09;6.90;71.70
13332;DHT22;6735;51.456;12.626;2023-02-15T16:40:43;6.80;71.90
13332;DHT22;6735;51.456;12.626;2023-02-15T16:43:29;6.70;72.00
13332;DHT22;6735;51.456;12.626;2023-02-15T16:46:10;6.60;72.10
13332;DHT22;6735;51.456;12.626;2023-02-15T16:48:41;6.50;72.30
13332;DHT22;6735;51.456;12.626;2023-02-15T16:51:08;6.40;72.60
13332;DHT22;6735;51.456;12.626;2023-02-15T16:53:34;6.40;72.90
13332;DHT22;6735;51.456;12.626;2023-02-15T16:56:04;6.30;73.00
13332;DHT22;6735;51.456;12.626;2023-02-15T16:58:46;6.30;73.00
13332;DHT22;6735;51.456;12.626;2023-02-15T17:01:15;6.20;73.40
13332;DHT22;6735;51.456;12.626;2023-02-15T17:03:42;6.20;73.60
13332;DHT22;6735;51.456;12.626;2023-02-15T17:06:25;6.10;73.80
13332;DHT22;6735;51.456;12.626;2023-02-15T17:08:52;6.10;73.80
13332;DHT22;6735;51.456;12.626;2023-02-15T17:11:20;6.00;74.20
13332;DHT22;6735;51.456;12.626;2023-02-15T17:16:50;5.80;74.20
13332;DHT22;6735;51.456;12.626;2023-02-15T17:19:44;5.80;74.40
13332;DHT22;6735;51.456;12.626;2023-02-15T17:22:06;5.70;74.60
13332;DHT22;6735;51.456;12.626;2023-02-15T17:24:41;5.70;75.10
13332;DHT22;6735;51.456;12.626;2023-02-15T17:27:17;5.60;74.90
13332;DHT22;6735;51.456;12.626;2023-02-15T17:29:46;5.60;75.20
13332;DHT22;6735;51.456;12.626;2023-02-15T17:32:17;5.50;75.20
13332;DHT22;6735;51.456;12.626;2023-02-15T17:34:48;5.40;75.20
13332;DHT22;6735;51.456;12.626;2023-02-15T17:39:52;5.30;75.80
13332;DHT22;6735;51.456;12.626;2023-02-15T17:42:18;5.30;76.40
13332;DHT22;6735;51.456;12.626;2023-02-15T17:44:43;5.20;76.10
13332;DHT22;6735;51.456;12.626;2023-02-15T17:47:15;5.20;76.30
13332;DHT22;6735;51.456;12.626;2023-02-15T17:49:42;5.10;75.80
13332;DHT22;6735;51.456;12.626;2023-02-15T17:52:17;5.10;76.30
13332;DHT22;6735;51.456;12.626;2023-02-15T17:54:43;5.00;76.20
13332;DHT22;6735;51.456;12.626;2023-02-15T17:57:28;5.00;76.50
13332;DHT22;6735;51.456;12.626;2023-02-15T17:59:54;4.90;76.90
13332;DHT22;6735;51.456;12.626;2023-02-15T18:02:38;4.90;77.30
13332;DHT22;6735;51.456;12.626;2023-02-15T18:05:22;4.80;77.50
13332;DHT22;6735;51.456;12.626;2023-02-15T18:08:15;4.70;77.30
13332;DHT22;6735;51.456;12.626;2023-02-15T18:11:00;4.70;77.80